M I D A S
Marine Information and Data Acquisition System
Tripno 857 of the Zeeleeuw from 2005-03-07 07:35:17 to 2005-03-07 18:04:43
Back to CruiseResearch ActivitiesStationsMapUnderway DataData graphs

EquipmentUnitsComment
TimeDGPSUTC
LatitudeDGPSDM.mWGS84
LongitudeDGPSDM.mWGS84
TemperatureSBE03/SBE38deg celciusITS90
ConductivitySBE21S/mITS90
SalinitySBE21 Practical Salinity Units
ChlorophylAChelsea fluorimeterg/lCalibrated in Aceton
Missing or incorrect values are displayed as -999
Sea surface data collected by the RV Zeeleeuw from 2005-03-07 07:28:23 to 2005-03-07 18:04:00
Time Latitude Longitude Temperature Conductivity Salinity ChlorophylA
2005-03-07 07:29:29 51°13.61 2°56.053 10.8614 0.014221 0.07578 -0.848668
2005-03-07 07:30:29 51°13.641 2°55.95 10.8553 0.014221 0.075786 -0.882377
2005-03-07 07:31:29 51°13.68 2°55.818 10.9527 0.014221 0.075792 -0.882377
2005-03-07 07:32:29 51°13.695 2°55.753 10.9863 0.014221 0.075797 -0.882377
2005-03-07 07:33:29 51°13.713 2°55.785 10.703 0.014221 0.075806 -0.882377
2005-03-07 07:34:29 51°13.717 2°55.777 3.3436 2.751741 24.432328 3.162751
2005-03-07 07:35:28 51°13.779 2°55.683 3.0474 1.775566 18.215219 5.893212
2005-03-07 07:36:29 51°13.896 2°55.576 2.8912 1.763288 18.22867 5.724665
2005-03-07 07:37:29 51°14.03 2°55.486 2.8716 1.928735 20.168322 4.679674
2005-03-07 07:38:28 51°14.151 2°55.398 2.7762 1.802858 18.784604 4.005486
2005-03-07 07:39:28 51°14.269 2°55.245 2.7869 1.85902 19.459634 3.19646
2005-03-07 07:40:28 51°14.366 2°55.048 2.8562 1.983552 20.886907 3.027913
2005-03-07 07:41:28 51°14.5 2°54.908 2.845 2.236321 23.764804 2.825657
2005-03-07 07:42:28 51°14.658 2°54.758 2.8313 2.505344 26.944598 2.387435
2005-03-07 07:43:29 51°14.836 2°54.6 2.8087 2.616513 28.285509 2.589691
2005-03-07 07:44:28 51°15.018 2°54.426 2.8242 2.63692 28.538583 2.589691
2005-03-07 07:45:29 51°15.204 2°54.257 2.8314 2.644073 28.608473 2.859366
2005-03-07 07:46:28 51°15.387 2°54.09 2.8423 2.644493 28.614283 2.65711
2005-03-07 07:47:28 51°15.568 2°53.915 2.8987 2.669214 28.883534 2.08405
2005-03-07 07:48:28 51°15.753 2°53.751 2.8953 2.681733 29.003346 2.353725
2005-03-07 07:49:29 51°15.94 2°53.589 2.9013 2.684573 29.040405 2.522272
2005-03-07 07:50:29 51°16.122 2°53.432 2.9116 2.692253 29.13021 2.522272
2005-03-07 07:51:28 51°16.305 2°53.276 2.9458 2.694357 29.136496 2.65711
2005-03-07 07:52:28 51°16.489 2°53.117 2.976 2.699512 29.171727 2.690819
2005-03-07 07:53:28 51°16.672 2°52.956 2.994 2.708664 29.264249 2.960494
2005-03-07 07:54:28 51°16.847 2°52.805 3.013 2.717502 29.353786 3.095332
2005-03-07 07:55:28 51°17.039 2°52.674 3.0291 2.727707 29.453785 2.994204
2005-03-07 07:56:28 51°17.232 2°52.547 3.0284 2.732967 29.508101 2.859366
2005-03-07 07:57:28 51°17.427 2°52.416 3.0313 2.72939 29.472154 2.758238
2005-03-07 07:58:29 51°17.632 2°52.339 3.0275 2.7316 29.493486 2.758238
2005-03-07 07:59:28 51°17.838 2°52.283 3.0373 2.731284 29.497142 2.791947
2005-03-07 08:00:28 51°18.047 2°52.279 3.0585 2.735177 29.533546 2.690819
2005-03-07 08:01:28 51°18.249 2°52.407 3.088 2.739175 29.553052 2.960494
2005-03-07 08:02:28 51°18.452 2°52.546 3.1186 2.742121 29.563335 2.893076
2005-03-07 08:03:28 51°18.654 2°52.676 3.1472 2.745908 29.58771 2.758238
2005-03-07 08:04:28 51°18.852 2°52.806 3.1938 2.756745 29.680832 2.353725
2005-03-07 08:05:28 51°19.051 2°52.941 3.2048 2.76653 29.766293 2.320016
2005-03-07 08:06:28 51°19.248 2°53.08 3.2061 2.771896 29.823281 2.320016
2005-03-07 08:07:28 51°19.442 2°53.216 3.2033 2.774211 29.852379 2.286306
2005-03-07 08:08:29 51°19.641 2°53.354 3.1984 2.777894 29.893553 2.320016
2005-03-07 08:09:28 51°19.834 2°53.484 3.1791 2.782103 29.960093 2.185178
2005-03-07 08:10:28 51°20.026 2°53.621 3.176 2.770739 29.835237 2.016631
2005-03-07 08:11:28 51°20.225 2°53.758 3.1923 2.789469 30.05168 1.982922
2005-03-07 08:12:29 51°20.426 2°53.896 3.2029 2.790415 30.054574 1.949212
2005-03-07 08:13:28 51°20.62 2°54.032 3.1869 2.793677 30.094129 1.746956
2005-03-07 08:14:29 51°20.822 2°54.171 3.1727 2.796098 30.132903 1.713247
2005-03-07 08:15:28 51°21.014 2°54.312 3.161 2.79494 30.130039 1.814375
2005-03-07 08:16:28 51°21.209 2°54.465 3.1719 2.795151 30.145106 1.780665
2005-03-07 08:17:29 51°21.407 2°54.626 3.1884 2.796624 30.14669 1.814375
2005-03-07 08:18:28 51°21.602 2°54.784 3.2193 2.799781 30.165753 1.848084
2005-03-07 08:19:28 51°21.8 2°54.941 3.2519 2.803884 30.181801 1.780665
2005-03-07 08:20:28 51°21.998 2°55.09 3.2755 2.811566 30.247782 2.117759
2005-03-07 08:21:29 51°22.198 2°55.228 3.2973 2.808198 30.18861 2.252597
2005-03-07 08:22:28 51°22.399 2°55.37 3.3178 2.820825 30.317289 2.185178
2005-03-07 08:23:28 51°22.593 2°55.516 3.3407 2.826508 30.364458 2.117759
2005-03-07 08:24:28 51°22.789 2°55.661 3.385 2.833663 30.4223 2.050341
2005-03-07 08:25:29 51°22.99 2°55.801 3.4273 2.842082 30.482391 2.320016
2005-03-07 08:26:28 51°23.19 2°55.94 3.4816 2.849448 30.524049 2.421144
2005-03-07 08:27:28 51°23.383 2°56.08 3.5203 2.85955 30.59791 2.589691
2005-03-07 08:28:28 51°23.585 2°56.222 3.5874 2.867548 30.654378 2.555982
2005-03-07 08:29:28 51°23.786 2°56.366 3.6281 2.882281 30.76311 2.117759
2005-03-07 08:30:29 51°23.986 2°56.513 3.6359 2.875545 30.661958 1.814375
2005-03-07 08:31:29 51°24.185 2°56.654 3.6412 2.878703 30.694897 1.814375
2005-03-07 08:32:28 51°24.381 2°56.8 3.6488 2.88407 30.749623 1.881794
2005-03-07 08:33:28 51°24.578 2°56.947 3.645 2.881334 30.718278 1.949212
2005-03-07 08:34:28 51°24.778 2°57.083 3.641 2.885438 30.764875 1.881794
2005-03-07 08:35:29 51°24.982 2°57.219 3.6332 2.883123 30.746057 1.814375
2005-03-07 08:36:28 51°25.18 2°57.356 3.6328 2.878492 30.695783 1.848084
2005-03-07 08:37:29 51°25.388 2°57.492 3.6475 2.887333 30.793906 2.08405
2005-03-07 08:38:28 51°25.585 2°57.624 3.6769 2.888911 30.79646 2.454853
2005-03-07 08:39:28 51°25.788 2°57.758 3.7164 2.893963 30.824674 2.454853
2005-03-07 08:40:29 51°25.992 2°57.891 3.7509 2.890384 30.745637 2.488563
2005-03-07 08:41:28 51°26.193 2°58.024 3.78 2.900382 30.83355 2.387435
2005-03-07 08:42:28 51°26.398 2°58.158 3.796 2.90796 30.903077 2.421144
2005-03-07 08:43:28 51°26.6 2°58.291 3.8065 2.911854 30.927678 2.252597
2005-03-07 08:44:28 51°26.793 2°58.426 3.8059 2.914485 30.948409 2.185178
2005-03-07 08:45:28 51°26.993 2°58.554 3.7984 2.919958 31.0227 1.949212
2005-03-07 08:46:28 51°27.19 2°58.707 3.8037 2.918379 31.00672 1.848084
2005-03-07 08:47:29 51°27.378 2°58.869 3.8201 2.918484 31.001198 1.746956
2005-03-07 08:48:28 51°27.546 2°59.084 3.8429 2.923852 31.044696 1.51099
2005-03-07 08:49:28 51°27.692 2°59.359 3.8539 2.92322 31.019565 1.477281
2005-03-07 08:50:28 51°27.836 2°59.649 3.8583 2.917326 30.943801 1.275024
2005-03-07 08:51:28 51°27.978 2°59.936 3.8656 2.927641 31.058678 1.140187
2005-03-07 08:52:28 51°28.112 3°0.231 3.8567 2.92943 31.074564 1.005349
2005-03-07 08:53:28 51°28.244 3°0.526 3.8465 2.929219 31.080548 1.005349
2005-03-07 08:54:28 51°28.377 3°0.82 3.8429 2.930377 31.101722 0.97164
2005-03-07 08:55:28 51°28.514 3°1.112 3.8475 2.924904 31.038447 1.039059
2005-03-07 08:56:28 51°28.648 3°1.408 3.8467 2.923115 31.018332 0.93793
2005-03-07 08:57:28 51°28.784 3°1.696 3.8557 2.922062 31.00263 1.173896
2005-03-07 08:58:29 51°28.927 3°2 3.872 2.918694 30.95477 1.51099
2005-03-07 08:59:28 51°29.066 3°2.292 3.8853 2.926588 31.032008 1.51099
2005-03-07 09:00:29 51°29.205 3°2.591 3.9034 2.933113 31.09235 1.578409
2005-03-07 09:01:28 51°29.343 3°2.885 3.9104 2.936271 31.114094 1.612118
2005-03-07 09:02:28 51°29.483 3°3.179 3.9142 2.925219 30.981473 1.578409
2005-03-07 09:03:28 51°29.621 3°3.476 3.9129 2.931008 31.04832 1.477281
2005-03-07 09:04:28 51°29.76 3°3.77 3.9186 2.937218 31.118418 1.376153
2005-03-07 09:05:28 51°29.899 3°4.067 3.9226 2.938586 31.128509 1.409862
2005-03-07 09:06:29 51°30.041 3°4.368 3.9253 2.942165 31.167829 1.241315
2005-03-07 09:07:28 51°30.181 3°4.659 3.9238 2.943639 31.185066 1.072768
2005-03-07 09:08:28 51°30.317 3°4.948 3.9263 2.943112 31.177218 1.039059
2005-03-07 09:09:28 51°30.458 3°5.245 3.9229 2.941218 31.155059 1.241315
2005-03-07 09:10:28 51°30.592 3°5.534 3.9178 2.940797 31.156052 1.578409
2005-03-07 09:11:28 51°30.727 3°5.825 3.9135 2.938165 31.127808 1.679537
2005-03-07 09:12:29 51°30.868 3°6.123 3.8998 2.936376 31.111946 1.814375
2005-03-07 09:13:28 51°31.004 3°6.416 3.8852 2.931008 31.067716 1.376153
2005-03-07 09:14:28 51°31.143 3°6.703 3.8853 2.927114 31.026364 1.275024
2005-03-07 09:15:28 51°31.282 3°6.998 3.8756 2.92543 31.010872 1.342443
2005-03-07 09:16:29 51°31.423 3°7.292 3.8748 2.929114 31.060734 1.342443
2005-03-07 09:17:28 51°31.558 3°7.584 3.8738 2.927009 31.036093 1.443571
2005-03-07 09:18:29 51°31.692 3°7.876 3.8673 2.92764 31.04686 1.5447
2005-03-07 09:19:28 51°31.828 3°8.167 3.8676 2.931745 31.095764 1.578409
2005-03-07 09:20:29 51°31.973 3°8.467 3.8757 2.927219 31.040244 1.612118
2005-03-07 09:21:28 51°32.112 3°8.757 3.8833 2.936797 31.144771 1.713247
2005-03-07 09:22:28 51°32.253 3°9.054 3.8947 2.938271 31.15356 1.780665
2005-03-07 09:23:28 51°32.389 3°9.354 3.8975 2.941639 31.187062 1.915503
2005-03-07 09:24:28 51°32.523 3°9.645 3.9099 2.936271 31.114938 1.848084
2005-03-07 09:25:28 51°32.661 3°9.94 3.9225 2.941007 31.157669 1.881794
2005-03-07 09:26:28 51°32.799 3°10.243 3.9296 2.945007 31.197686 1.881794
2005-03-07 09:27:28 51°32.94 3°10.542 3.9453 2.947533 31.221306 1.814375
2005-03-07 09:28:28 51°33.081 3°10.841 3.9465 2.948691 31.225531 1.679537
2005-03-07 09:29:28 51°33.224 3°11.143 3.955 2.952796 31.266754 1.679537
2005-03-07 09:30:29 51°33.368 3°11.444 3.9694 2.956164 31.295113 1.578409
2005-03-07 09:31:28 51°33.508 3°11.733 3.9695 2.9589 31.318622 1.409862
2005-03-07 09:32:28 51°33.651 3°12.032 3.9647 2.957953 31.31179 1.409862
2005-03-07 09:33:28 51°33.796 3°12.331 3.9665 2.956164 31.290873 1.308734
2005-03-07 09:34:28 51°33.942 3°12.632 3.96 2.956795 31.298255 1.477281
2005-03-07 09:35:28 51°34.088 3°12.933 3.9475 2.956059 31.298123 1.679537
2005-03-07 09:36:28 51°34.232 3°13.237 3.9427 2.951954 31.261994 1.713247
2005-03-07 09:37:28 51°34.375 3°13.535 3.9315 2.952164 31.270391 1.679537
2005-03-07 09:38:28 51°34.522 3°13.842 3.9446 2.951217 31.262702 1.51099
2005-03-07 09:39:29 51°34.667 3°14.15 3.9566 2.957006 31.31684 1.039059
2005-03-07 09:40:28 51°34.81 3°14.449 3.9711 2.960795 31.347564 0.97164
2005-03-07 09:41:29 51°34.953 3°14.758 3.9757 2.964163 31.376749 1.005349
2005-03-07 09:42:29 51°35.097 3°15.056 3.9803 2.964374 31.374111 0.97164
2005-03-07 09:43:29 51°35.236 3°15.354 3.9755 2.964479 31.371092 0.870512
2005-03-07 09:44:29 51°35.381 3°15.65 3.9711 2.959321 31.320149 0.836802
2005-03-07 09:45:28 51°35.519 3°15.945 3.975 2.959111 31.32278 0.97164
2005-03-07 09:46:28 51°35.663 3°16.242 3.9617 2.962584 31.35999 1.039059
2005-03-07 09:47:28 51°35.809 3°16.538 3.9553 2.958585 31.325115 1.106477
2005-03-07 09:48:28 51°35.956 3°16.838 3.9619 2.956795 31.303345 1.308734
2005-03-07 09:49:28 51°36.105 3°17.14 3.9528 2.956164 31.295113 1.51099
2005-03-07 09:50:29 51°36.256 3°17.441 3.9554 2.957953 31.321126 1.679537
2005-03-07 09:51:28 51°36.405 3°17.741 3.9534 2.953953 31.275206 1.746956
2005-03-07 09:52:28 51°36.554 3°18.047 3.9423 2.953006 31.268368 1.848084
2005-03-07 09:53:28 51°36.703 3°18.345 3.945 2.949427 31.231606 1.881794
2005-03-07 09:54:29 51°36.855 3°18.642 3.9279 2.947638 31.218303 1.915503
2005-03-07 09:55:29 51°37.008 3°18.942 3.927 2.947744 31.230546 2.08405
2005-03-07 09:56:29 51°37.157 3°19.246 3.9664 2.950691 31.250613 2.050341
2005-03-07 09:57:28 51°37.304 3°19.542 3.9957 2.963532 31.365967 1.713247
2005-03-07 09:58:28 51°37.45 3°19.841 4.0001 2.968794 31.407078 1.443571
2005-03-07 09:59:28 51°37.597 3°20.141 4.02 2.969321 31.405577 1.342443
2005-03-07 10:00:28 51°37.745 3°20.438 4.0299 2.971952 31.419315 1.376153
2005-03-07 10:01:28 51°37.895 3°20.735 4.0353 2.974162 31.434077 1.679537
2005-03-07 10:02:28 51°38.044 3°21.032 4.033 2.973952 31.433319 2.016631
2005-03-07 10:03:28 51°38.189 3°21.324 4.0461 2.974057 31.432848 1.881794
2005-03-07 10:04:28 51°38.34 3°21.62 4.0447 2.976899 31.454124 1.746956
2005-03-07 10:05:28 51°38.492 3°21.913 4.055 2.976057 31.443445 1.612118
2005-03-07 10:06:28 51°38.642 3°22.214 4.0684 2.980267 31.487484 1.5447
2005-03-07 10:07:28 51°38.787 3°22.511 4.0776 2.987215 31.551532 1.342443
2005-03-07 10:08:29 51°38.938 3°22.811 4.0903 2.989109 31.566822 1.241315
2005-03-07 10:09:28 51°39.083 3°23.109 4.0876 2.990899 31.581733 1.207606
2005-03-07 10:10:28 51°39.231 3°23.404 4.0867 2.991425 31.584463 1.207606
2005-03-07 10:11:28 51°39.377 3°23.706 4.0928 2.990267 31.5684 1.072768
2005-03-07 10:12:28 51°39.523 3°24.002 4.1062 2.991004 31.568475 1.072768
2005-03-07 10:13:28 51°39.672 3°24.302 4.11 2.996478 31.624633 0.836802
2005-03-07 10:14:28 51°39.818 3°24.596 4.1024 2.994372 31.597527 1.005349
2005-03-07 10:15:28 51°39.965 3°24.892 4.1043 2.993846 31.598209 1.005349
2005-03-07 10:16:28 51°40.11 3°25.187 4.1093 2.99132 31.573009 1.072768
2005-03-07 10:17:29 51°40.261 3°25.486 4.1051 2.990162 31.557804 1.039059
2005-03-07 10:18:28 51°40.41 3°25.777 4.0992 2.99132 31.56875 0.904221
2005-03-07 10:19:29 51°40.562 3°26.075 4.0956 2.987214 31.523439 0.701965
2005-03-07 10:20:28 51°40.732 3°26.333 4.0945 2.988583 31.542798 0.735674
2005-03-07 10:21:29 51°40.908 3°26.575 4.0986 2.988793 31.541848 0.803093
2005-03-07 10:22:28 51°41.083 3°26.81 4.1009 2.986583 31.517777 0.769383
2005-03-07 10:23:28 51°41.265 3°27.052 4.1077 2.987635 31.520694 0.769383
2005-03-07 10:24:28 51°41.446 3°27.295 4.109 2.987741 31.523622 0.803093
2005-03-07 10:25:29 51°41.626 3°27.536 4.1165 2.987109 31.51031 0.904221
2005-03-07 10:26:28 51°41.803 3°27.771 4.114 2.985951 31.499365 0.93793
2005-03-07 10:27:28 51°41.985 3°28.014 4.1198 2.984688 31.473609 0.904221
2005-03-07 10:28:28 51°42.168 3°28.253 4.1257 2.98353 31.461817 0.904221
2005-03-07 10:29:28 51°42.354 3°28.483 4.1305 2.982161 31.438248 0.904221
2005-03-07 10:30:28 51°42.541 3°28.713 4.1382 2.982793 31.444756 1.072768
2005-03-07 10:31:28 51°42.732 3°28.943 4.1273 2.980477 31.419482 1.140187
2005-03-07 10:32:28 51°42.925 3°29.161 4.1176 2.980583 31.421555 1.140187
2005-03-07 10:33:29 51°43.114 3°29.381 4.1018 2.978162 31.401827 1.207606
2005-03-07 10:34:29 51°43.306 3°29.601 4.1001 2.972793 31.35199 1.072768
2005-03-07 10:35:28 51°43.497 3°29.818 4.0835 2.969109 31.320061 1.005349
2005-03-07 10:36:29 51°43.69 3°30.045 4.0851 2.965846 31.290491 1.005349
2005-03-07 10:37:28 51°43.874 3°30.281 4.0867 2.964373 31.270788 0.93793
2005-03-07 10:38:29 51°44.064 3°30.523 4.0826 2.964057 31.269641 0.904221
2005-03-07 10:39:29 51°44.248 3°30.764 4.0793 2.962794 31.257456 0.93793
2005-03-07 10:40:28 51°44.431 3°31.007 4.0828 2.960583 31.230016 0.870512
2005-03-07 10:41:28 51°44.616 3°31.255 4.0918 2.96111 31.231089 0.870512
2005-03-07 10:42:28 51°44.778 3°31.547 4.1006 2.961846 31.234614 1.039059
2005-03-07 10:43:28 51°44.906 3°31.874 4.0971 2.960899 31.219369 0.97164
2005-03-07 10:44:28 51°45 3°32.237 4.0889 2.958689 31.199524 1.072768
2005-03-07 10:45:29 51°45.057 3°32.625 4.0858 2.956584 31.178375 1.140187
2005-03-07 10:46:28 51°45.117 3°33.009 4.0895 2.952794 31.137613 1.173896
2005-03-07 10:47:29 51°45.178 3°33.397 4.0774 2.951531 31.123746 1.140187
2005-03-07 10:48:28 51°45.239 3°33.769 4.0726 2.947216 31.076018 0.904221
2005-03-07 10:49:28 51°45.294 3°34.149 4.0887 2.944795 31.051187 0.97164
2005-03-07 10:50:28 51°45.354 3°34.524 4.0884 2.943111 31.024043 1.072768
2005-03-07 10:51:28 51°45.415 3°34.896 4.0875 2.939953 30.986459 0.97164
2005-03-07 10:52:28 51°45.477 3°35.274 4.0992 2.940058 30.982667 1.039059
2005-03-07 10:53:29 51°45.541 3°35.652 4.1031 2.940585 30.984609 1.106477
2005-03-07 10:54:28 51°45.604 3°36.019 4.1021 2.941637 30.987658 0.97164
2005-03-07 10:55:28 51°45.671 3°36.392 4.1036 2.939742 30.968129 0.97164
2005-03-07 10:56:29 51°45.728 3°36.687 4.0952 2.936901 30.934245 1.207606
2005-03-07 10:57:28 51°45.762 3°36.84 4.0954 2.934164 30.913265 0.870512
2005-03-07 10:58:28 51°45.766 3°36.911 4.0951 2.934269 30.909485 0.904221
2005-03-07 10:59:28 51°45.775 3°36.942 4.0946 2.93448 30.911099 1.039059
2005-03-07 11:00:28 51°45.777 3°36.976 4.0976 2.934374 30.904873 1.241315
2005-03-07 11:01:29 51°45.774 3°37.01 4.1002 2.934901 30.915161 1.173896
2005-03-07 11:02:29 51°45.765 3°37.04 4.1086 2.935216 30.914663 1.173896
2005-03-07 11:03:28 51°45.722 3°37.05 4.1014 2.935006 30.908047 1.106477
2005-03-07 11:04:28 51°45.666 3°37.021 4.0986 2.934269 30.902815 0.904221
2005-03-07 11:05:29 51°45.624 3°36.969 4.1011 2.933532 30.895083 0.769383
2005-03-07 11:06:28 51°45.601 3°36.903 4.1017 2.93269 30.882794 0.668255
2005-03-07 11:07:28 51°45.583 3°36.843 4.0989 2.929954 30.852648 0.701965
2005-03-07 11:08:28 51°45.555 3°36.782 4.096 2.928901 30.843741 0.803093
2005-03-07 11:09:28 51°45.525 3°36.711 4.0906 2.927849 30.834833 0.803093
2005-03-07 11:10:29 51°45.494 3°36.641 4.0984 2.927007 30.828371 0.904221
2005-03-07 11:11:28 51°45.464 3°36.576 4.0912 2.92606 30.817358 0.870512
2005-03-07 11:12:29 51°45.436 3°36.51 4.0891 2.924797 30.805169 0.803093
2005-03-07 11:13:29 51°45.406 3°36.442 4.0845 2.925533 30.814566 0.904221
2005-03-07 11:14:28 51°45.378 3°36.377 4.0916 2.924586 30.801059 1.005349
2005-03-07 11:15:29 51°45.349 3°36.309 4.0981 2.924586 30.800228 0.904221
2005-03-07 11:16:28 51°45.322 3°36.243 4.0896 2.926586 30.824308 0.836802
2005-03-07 11:17:28 51°45.295 3°36.176 4.0894 2.924376 30.801105 0.870512
2005-03-07 11:18:28 51°45.266 3°36.112 4.092 2.923428 30.785939 0.97164
2005-03-07 11:19:28 51°45.237 3°36.043 4.0962 2.922586 30.779473 0.97164
2005-03-07 11:20:29 51°45.21 3°35.972 4.0879 2.923428 30.785939 0.97164
2005-03-07 11:21:29 51°45.182 3°35.905 4.0896 2.92606 30.815695 1.039059
2005-03-07 11:22:28 51°45.153 3°35.839 4.0863 2.928901 30.852063 1.005349
2005-03-07 11:23:28 51°45.127 3°35.77 4.0854 2.925954 30.819461 0.93793
2005-03-07 11:24:29 51°45.098 3°35.7 4.0938 2.92627 30.820637 0.836802
2005-03-07 11:25:28 51°45.07 3°35.631 4.0851 2.924165 30.798658 0.735674
2005-03-07 11:26:28 51°45.043 3°35.561 4.0863 2.928375 30.846776 0.735674
2005-03-07 11:27:29 51°45.015 3°35.491 4.0857 2.926902 30.827147 0.634546
2005-03-07 11:28:29 51°44.985 3°35.425 4.0832 2.926375 30.821861 0.668255
2005-03-07 11:29:29 51°44.949 3°35.366 4.0803 2.926481 30.826411 0.701965
2005-03-07 11:30:29 51°44.913 3°35.305 4.0766 2.922586 30.78695 0.668255
2005-03-07 11:31:28 51°44.878 3°35.245 4.0776 2.925112 30.820483 0.701965
2005-03-07 11:32:28 51°44.843 3°35.185 4.0688 2.921955 30.783762 0.668255
2005-03-07 11:33:28 51°44.81 3°35.126 4.0755 2.919324 30.759808 0.600836
2005-03-07 11:34:28 51°44.776 3°35.065 4.0724 2.920902 30.776507 0.634546
2005-03-07 11:35:28 51°44.739 3°35.003 4.0725 2.922692 30.795655 0.634546
2005-03-07 11:36:28 51°44.707 3°34.942 4.0732 2.91985 30.765098 0.600836
2005-03-07 11:37:29 51°44.672 3°34.876 4.0645 2.923534 30.803784 0.634546
2005-03-07 11:38:29 51°44.638 3°34.812 4.0688 2.923744 30.80956 0.701965
2005-03-07 11:39:28 51°44.616 3°34.742 4.0674 2.925007 30.822587 0.634546
2005-03-07 11:40:29 51°44.6 3°34.667 4.075 2.925007 30.822587 0.634546
2005-03-07 11:41:28 51°44.598 3°34.589 4.0774 2.923744 30.807064 0.600836
2005-03-07 11:42:28 51°44.616 3°34.517 4.0893 2.927533 30.846141 0.533418
2005-03-07 11:43:29 51°44.638 3°34.479 4.0848 2.931533 30.88933 0.567127
2005-03-07 11:44:29 51°44.652 3°34.468 4.0898 2.933322 30.90931 0.634546
2005-03-07 11:45:28 51°44.665 3°34.462 4.0835 2.934269 30.92033 0.735674
2005-03-07 11:46:29 51°44.701 3°34.449 4.0822 2.931848 30.890502 0.803093
2005-03-07 11:47:29 51°44.774 3°34.482 4.0825 2.932796 30.903188 0.836802
2005-03-07 11:48:29 51°44.846 3°34.548 4.0778 2.936374 30.950667 0.769383
2005-03-07 11:49:29 51°44.907 3°34.625 4.0684 2.93648 30.950221 0.634546
2005-03-07 11:50:29 51°44.954 3°34.721 4.1038 2.923323 30.795517 0.803093
2005-03-07 11:51:28 51°44.985 3°34.803 4.1116 2.927954 30.822752 0.668255
2005-03-07 11:52:29 51°45.012 3°34.875 4.1086 2.921954 30.744757 0.803093
2005-03-07 11:53:29 51°45.035 3°34.941 4.1042 2.914903 30.666179 0.904221
2005-03-07 11:54:29 51°45.056 3°35.003 4.113 2.92848 30.818895 0.870512
2005-03-07 11:55:28 51°45.074 3°35.064 4.0994 2.921534 30.748157 0.97164
2005-03-07 11:56:28 51°45.092 3°35.127 4.1028 2.91564 30.682179 0.93793
2005-03-07 11:57:29 51°45.11 3°35.191 4.1603 2.924481 30.779074 0.836802
2005-03-07 11:58:29 51°45.128 3°35.257 4.2018 2.931006 30.848242 0.803093
2005-03-07 11:59:28 51°45.145 3°35.324 4.1352 2.929532 30.792942 0.870512
2005-03-07 12:00:28 51°45.162 3°35.396 4.1211 2.925112 30.779772 0.836802
2005-03-07 12:01:28 51°45.18 3°35.47 4.1182 2.927533 30.808722 0.803093
2005-03-07 12:02:28 51°45.197 3°35.544 4.11 2.923954 30.77794 0.769383
2005-03-07 12:03:29 51°45.216 3°35.619 4.1183 2.924586 30.776148 0.769383
2005-03-07 12:04:29 51°45.234 3°35.694 4.1158 2.927007 30.807591 0.735674
2005-03-07 12:05:29 51°45.253 3°35.769 4.1109 2.922691 30.765754 0.735674
2005-03-07 12:06:28 51°45.271 3°35.843 4.1349 2.922165 30.75964 0.735674
2005-03-07 12:07:29 51°45.289 3°35.918 4.1302 2.915745 30.675956 0.735674
2005-03-07 12:08:29 51°45.31 3°35.992 4.092 2.919534 30.732385 0.701965
2005-03-07 12:09:28 51°45.332 3°36.063 4.0884 2.924586 30.784447 0.701965
2005-03-07 12:10:29 51°45.354 3°36.136 4.0984 2.919218 30.727059 0.735674
2005-03-07 12:11:28 51°45.377 3°36.206 4.1082 2.913008 30.656581 0.735674
2005-03-07 12:12:29 51°45.4 3°36.282 4.1058 2.918902 30.725877 0.701965
2005-03-07 12:13:28 51°45.423 3°36.354 4.1026 2.916902 30.690227 0.668255
2005-03-07 12:14:28 51°45.449 3°36.425 4.1144 2.922376 30.764575 0.769383
2005-03-07 12:15:28 51°45.476 3°36.496 4.1168 2.921849 30.760119 0.735674
2005-03-07 12:16:29 51°45.501 3°36.567 4.111 2.921218 30.742831 0.735674
2005-03-07 12:17:29 51°45.527 3°36.638 4.1247 2.910693 30.619778 0.870512
2005-03-07 12:18:29 51°45.553 3°36.709 4.109 2.917745 30.714911 0.904221
2005-03-07 12:19:28 51°45.579 3°36.781 4.1322 2.921744 30.749773 0.803093
2005-03-07 12:20:29 51°45.603 3°36.852 4.1291 2.917008 30.693932 0.836802
2005-03-07 12:21:29 51°45.628 3°36.923 4.1082 2.922376 30.752963 0.836802
2005-03-07 12:22:29 51°45.652 3°36.993 4.1147 2.913534 30.649467 0.870512
2005-03-07 12:23:28 51°45.675 3°37.06 4.1187 2.920797 30.741256 0.93793
2005-03-07 12:24:29 51°45.693 3°37.133 4.1301 2.912061 30.63236 0.803093
2005-03-07 12:25:28 51°45.705 3°37.207 4.1093 2.917639 30.688854 0.701965
2005-03-07 12:26:29 51°45.72 3°37.282 4.1132 2.919534 30.725755 0.803093
2005-03-07 12:27:28 51°45.738 3°37.357 4.1121 2.911745 30.63365 0.803093
2005-03-07 12:28:29 51°45.758 3°37.43 4.1036 2.916271 30.68124 0.803093
2005-03-07 12:29:28 51°45.77 3°37.495 4.1263 2.915955 30.672612 0.769383
2005-03-07 12:30:29 51°45.784 3°37.551 4.1183 2.916061 30.687896 0.701965
2005-03-07 12:31:29 51°45.798 3°37.594 4.1104 2.914692 30.681934 0.803093
2005-03-07 12:32:28 51°45.813 3°37.63 4.1273 2.909325 30.618754 0.769383
2005-03-07 12:33:29 51°45.829 3°37.665 4.101 2.914166 30.668374 0.735674
2005-03-07 12:34:28 51°45.846 3°37.697 4.0981 2.912482 30.652949 0.668255
2005-03-07 12:35:29 51°45.864 3°37.73 4.1034 2.913324 30.649502 0.600836
2005-03-07 12:36:29 51°45.889 3°37.766 4.0981 2.913534 30.647814 0.533418
2005-03-07 12:37:29 51°45.922 3°37.81 4.1082 2.911114 30.633752 0.567127
2005-03-07 12:38:29 51°45.955 3°37.849 4.0727 2.911535 30.64608 0.803093
2005-03-07 12:39:29 51°45.986 3°37.888 4.0855 2.907957 30.615252 0.803093
2005-03-07 12:40:29 51°46.015 3°37.925 4.077 2.910377 30.647514 0.836802
2005-03-07 12:41:28 51°46.045 3°37.962 4.0826 2.908483 30.622192 0.870512
2005-03-07 12:42:28 51°46.073 3°37.999 4.0723 2.910693 30.650356 0.97164
2005-03-07 12:43:29 51°46.104 3°38.034 4.0711 2.909746 30.635214 0.93793
2005-03-07 12:44:29 51°46.131 3°38.067 4.0846 2.909851 30.637264 0.870512
2005-03-07 12:45:29 51°46.163 3°38.1 4.0785 2.910904 30.645358 0.97164
2005-03-07 12:46:28 51°46.192 3°38.133 4.0859 2.909746 30.635214 0.93793
2005-03-07 12:47:28 51°46.222 3°38.164 4.0797 2.911851 30.652229 1.005349
2005-03-07 12:48:28 51°46.252 3°38.196 4.112 2.908483 30.614756 0.870512
2005-03-07 12:49:28 51°46.28 3°38.232 4.122 2.912166 30.658378 1.005349
2005-03-07 12:50:29 51°46.307 3°38.264 4.0905 2.912903 30.662802 1.072768
2005-03-07 12:51:29 51°46.329 3°38.291 4.0978 2.905325 30.573132 0.93793
2005-03-07 12:52:28 51°46.345 3°38.318 4.1143 2.907009 30.586912 0.870512
2005-03-07 12:53:29 51°46.365 3°38.359 4.1205 2.915218 30.652492 0.769383
2005-03-07 12:54:29 51°46.354 3°38.471 4.1381 2.914376 30.651805 0.735674
2005-03-07 12:55:28 51°46.272 3°38.413 4.1036 2.91364 30.635823 0.93793
2005-03-07 12:56:29 51°46.162 3°38.21 4.0803 2.90722 30.595958 0.634546
2005-03-07 12:57:28 51°46.043 3°37.948 4.0829 2.903115 30.546643 0.701965
2005-03-07 12:58:29 51°45.938 3°37.658 4.0805 2.906062 30.588289 0.634546
2005-03-07 12:59:29 51°45.834 3°37.372 4.0791 2.903536 30.579579 0.600836
2005-03-07 13:00:28 51°45.737 3°37.088 4.0702 2.901431 30.556767 0.634546
2005-03-07 13:01:28 51°45.644 3°36.791 4.0786 2.907431 30.628149 0.533418
2005-03-07 13:02:29 51°45.548 3°36.493 4.0516 2.906589 30.615881 0.465999
2005-03-07 13:03:29 51°45.457 3°36.189 4.0574 2.91343 30.695416 0.567127
2005-03-07 13:04:29 51°45.369 3°35.889 4.093 2.917324 30.729085 0.567127
2005-03-07 13:05:29 51°45.28 3°35.586 4.0961 2.92006 30.75426 0.567127
2005-03-07 13:06:29 51°45.191 3°35.286 4.1168 2.925007 30.797644 0.600836
2005-03-07 13:07:28 51°45.106 3°34.991 4.1136 2.931848 30.850541 0.634546
2005-03-07 13:08:28 51°45.018 3°34.685 4.1336 2.933111 30.873533 0.499708
2005-03-07 13:09:29 51°44.929 3°34.378 4.115 2.931638 30.853916 0.533418
2005-03-07 13:10:29 51°44.82 3°34.095 4.1245 2.939111 30.938253 0.432289
2005-03-07 13:11:29 51°44.695 3°33.843 4.1213 2.941321 30.964776 0.432289
2005-03-07 13:12:28 51°44.553 3°33.615 4.1317 2.944479 30.997303 0.39858
2005-03-07 13:13:28 51°44.382 3°33.436 4.1182 2.944163 30.998646 0.432289
2005-03-07 13:14:29 51°44.209 3°33.253 4.1214 2.945426 31.005808 0.465999
2005-03-07 13:15:29 51°44.04 3°33.077 4.1315 2.945321 31.004584 0.432289
2005-03-07 13:16:28 51°43.874 3°32.915 4.1316 2.947952 31.025973 0.533418
2005-03-07 13:17:29 51°43.693 3°32.787 4.1207 2.947847 31.039802 0.701965
2005-03-07 13:18:29 51°43.507 3°32.694 4.1379 2.946268 31.024791 0.735674
2005-03-07 13:19:29 51°43.317 3°32.624 4.1175 2.946373 31.031871 0.735674
2005-03-07 13:20:28 51°43.128 3°32.554 4.0934 2.944163 31.007004 0.735674
2005-03-07 13:21:28 51°42.938 3°32.51 4.0923 2.939848 30.966012 0.836802
2005-03-07 13:22:29 51°42.75 3°32.603 4.0797 2.93869 30.968419 0.803093
2005-03-07 13:23:29 51°42.569 3°32.717 4.0519 2.937111 30.961748 0.97164
2005-03-07 13:24:28 51°42.394 3°32.837 4.0416 2.934585 30.944882 1.106477
2005-03-07 13:25:28 51°42.217 3°32.949 4.0291 2.931323 30.92862 1.241315
2005-03-07 13:26:29 51°42.036 3°33.073 4.0017 2.925324 30.892987 1.477281
2005-03-07 13:27:29 51°41.856 3°33.188 3.9854 2.920903 30.855655 1.308734
2005-03-07 13:28:28 51°41.681 3°33.321 3.9959 2.922798 30.878583 1.241315
2005-03-07 13:29:29 51°41.499 3°33.453 4.0228 2.927639 30.920818 1.308734
2005-03-07 13:30:28 51°41.321 3°33.58 4.0337 2.936375 30.997528 1.342443
2005-03-07 13:31:29 51°41.136 3°33.708 3.995 2.934901 30.987896 1.376153
2005-03-07 13:32:29 51°40.945 3°33.819 3.9752 2.928587 30.948613 1.612118
2005-03-07 13:33:29 51°40.751 3°33.893 3.9813 2.927745 30.948008 1.780665
2005-03-07 13:34:28 51°40.555 3°33.96 3.9092 2.920377 30.885476 1.5447
2005-03-07 13:35:29 51°40.355 3°33.963 3.8312 2.904485 30.751709 1.241315
2005-03-07 13:36:29 51°40.191 3°33.74 3.713 2.877017 30.534627 1.342443
2005-03-07 13:37:29 51°40.044 3°33.479 3.6806 2.863652 30.452055 1.5447
2005-03-07 13:38:29 51°39.889 3°33.225 3.6612 2.861127 30.439065 1.51099
2005-03-07 13:39:29 51°39.735 3°32.963 3.6987 2.861443 30.451927 1.746956
2005-03-07 13:40:29 51°39.579 3°32.697 3.8063 2.875439 30.552782 1.612118
2005-03-07 13:41:29 51°39.476 3°32.37 3.9828 2.912274 30.837702 1.645828
2005-03-07 13:42:28 51°39.381 3°32.045 4.008 2.935217 31.012545 1.645828
2005-03-07 13:43:29 51°39.281 3°31.712 3.9883 2.934796 31.010991 1.713247
2005-03-07 13:44:29 51°39.171 3°31.397 3.9844 2.931218 30.984345 1.915503
2005-03-07 13:45:29 51°39.017 3°31.142 4.0013 2.931744 30.982096 1.848084
2005-03-07 13:46:29 51°38.817 3°31.012 4.0003 2.934481 31.008147 1.814375
2005-03-07 13:47:29 51°38.61 3°30.904 3.9977 2.935533 31.01455 2.185178
2005-03-07 13:48:29 51°38.406 3°30.789 3.9728 2.93227 30.992431 2.454853
2005-03-07 13:49:29 51°38.2 3°30.67 3.9536 2.932692 31.011619 2.589691
2005-03-07 13:50:28 51°37.997 3°30.55 3.9461 2.930902 31.005011 2.522272
2005-03-07 13:51:29 51°37.791 3°30.428 3.9197 2.928061 30.985263 2.555982
2005-03-07 13:52:29 51°37.588 3°30.296 3.8821 2.920167 30.923255 2.353725
2005-03-07 13:53:28 51°37.389 3°30.173 3.8 2.914063 30.877896 2.421144
2005-03-07 13:54:29 51°37.184 3°30.045 3.7374 2.887858 30.684158 1.746956
2005-03-07 13:55:28 51°37.031 3°29.926 3.7219 2.883648 30.662409 1.949212
2005-03-07 13:56:28 51°36.993 3°29.88 3.7212 2.88449 30.679825 1.848084
2005-03-07 13:57:28 51°36.992 3°29.861 3.725 2.885753 30.691293 1.814375
2005-03-07 13:58:29 51°36.98 3°29.826 3.7346 2.886174 30.696233 1.915503
2005-03-07 13:59:28 51°36.954 3°29.739 3.7264 2.887647 30.706816 1.915503
2005-03-07 14:00:30 51°36.936 3°29.637 3.7321 2.888068 30.708402 1.746956
2005-03-07 14:01:28 51°36.928 3°29.538 3.7349 2.889963 30.728111 1.746956
2005-03-07 14:02:28 51°36.926 3°29.442 3.7436 2.889752 30.731513 1.848084
2005-03-07 14:03:28 51°36.925 3°29.359 3.7339 2.891436 30.747076 1.949212
2005-03-07 14:04:28 51°36.924 3°29.287 3.7414 2.891857 30.755373 1.848084
2005-03-07 14:05:28 51°36.918 3°29.209 3.7346 2.892594 30.7615 1.949212
2005-03-07 14:06:29 51°36.906 3°29.121 3.7308 2.893225 30.77395 1.949212
2005-03-07 14:07:29 51°36.886 3°29.033 3.7309 2.894278 30.7779 1.949212
2005-03-07 14:08:29 51°36.863 3°28.946 3.7347 2.894488 30.792135 2.050341
2005-03-07 14:09:29 51°36.84 3°28.857 3.7104 2.896488 30.802995 1.814375
2005-03-07 14:10:29 51°36.822 3°28.768 3.6758 2.889542 30.757591 1.409862
2005-03-07 14:11:29 51°36.805 3°28.684 3.6501 2.880597 30.691127 1.342443
2005-03-07 14:12:28 51°36.791 3°28.603 3.6205 2.87765 30.672437 1.409862
2005-03-07 14:13:28 51°36.775 3°28.526 3.5988 2.874703 30.658772 1.443571
2005-03-07 14:14:28 51°36.762 3°28.447 3.5988 2.87102 30.631384 1.51099
2005-03-07 14:15:29 51°36.747 3°28.366 3.5887 2.869547 30.623278 1.5447
2005-03-07 14:16:29 51°36.731 3°28.283 3.5716 2.868179 30.613888 1.612118
2005-03-07 14:17:29 51°36.714 3°28.207 3.5671 2.865969 30.600458 1.578409
2005-03-07 14:18:29 51°36.698 3°28.128 3.5601 2.864706 30.595659 1.578409
2005-03-07 14:19:28 51°36.684 3°28.051 3.5456 2.862812 30.580059 1.443571
2005-03-07 14:20:28 51°36.669 3°27.974 3.5457 2.860812 30.562375 1.443571
2005-03-07 14:21:28 51°36.653 3°27.899 3.5436 2.859339 30.549209 1.342443
2005-03-07 14:22:29 51°36.636 3°27.823 3.5381 2.857761 30.537318 1.275024
2005-03-07 14:23:30 51°36.621 3°27.747 3.512 2.854814 30.51265 1.308734
2005-03-07 14:24:28 51°36.605 3°27.671 3.4846 2.851973 30.493404 1.207606
2005-03-07 14:25:29 51°36.59 3°27.594 3.4679 2.84608 30.444849 1.072768
2005-03-07 14:26:28 51°36.576 3°27.519 3.4586 2.842712 30.420193 1.072768
2005-03-07 14:27:28 51°36.56 3°27.443 3.4548 2.840818 30.410398 1.106477
2005-03-07 14:28:29 51°36.545 3°27.369 3.4425 2.839661 30.403433 1.207606
2005-03-07 14:29:29 51°36.531 3°27.291 3.4254 2.837767 30.388604 1.275024
2005-03-07 14:30:29 51°36.517 3°27.213 3.4203 2.835346 30.375091 1.308734
2005-03-07 14:31:28 51°36.505 3°27.134 3.4169 2.835662 30.383846 1.376153
2005-03-07 14:32:29 51°36.502 3°27.05 3.3997 2.832189 30.350353 1.275024
2005-03-07 14:33:28 51°36.507 3°26.972 3.3901 2.829769 30.33347 1.275024
2005-03-07 14:34:29 51°36.519 3°26.895 3.373 2.826507 30.311645 1.308734
2005-03-07 14:35:28 51°36.539 3°26.824 3.3655 2.824929 30.30637 1.308734
2005-03-07 14:36:28 51°36.559 3°26.773 3.3661 2.824192 30.30268 1.376153
2005-03-07 14:37:28 51°36.572 3°26.74 3.349 2.822403 30.286539 1.443571
2005-03-07 14:38:29 51°36.581 3°26.717 3.3488 2.822509 30.282764 1.409862
2005-03-07 14:39:29 51°36.586 3°26.703 3.3625 2.821772 30.28409 1.5447
2005-03-07 14:40:28 51°36.607 3°26.677 3.351 2.824508 30.306414 1.645828
2005-03-07 14:41:29 51°36.656 3°26.586 3.3668 2.823666 30.300641 1.713247
2005-03-07 14:42:29 51°36.687 3°26.497 3.3642 2.824403 30.31103 1.51099
2005-03-07 14:43:29 51°36.71 3°26.412 3.3539 2.823771 30.300212 1.612118
2005-03-07 14:44:29 51°36.736 3°26.328 3.3403 2.821772 30.278234 1.443571
2005-03-07 14:45:29 51°36.759 3°26.25 3.3461 2.819983 30.270454 1.308734
2005-03-07 14:46:30 51°36.777 3°26.181 3.3347 2.820194 30.275455 1.443571
2005-03-07 14:47:29 51°36.79 3°26.119 3.3503 2.820088 30.275884 1.409862
2005-03-07 14:48:29 51°36.794 3°26.058 3.3465 2.821562 30.289133 1.645828
2005-03-07 14:49:28 51°36.79 3°26.003 3.3252 2.820299 30.277538 1.51099
2005-03-07 14:50:29 51°36.782 3°25.937 3.3174 2.817563 30.25436 1.376153
2005-03-07 14:51:29 51°36.768 3°25.867 3.3116 2.815143 30.235746 1.173896
2005-03-07 14:52:29 51°36.75 3°25.802 3.3031 2.815038 30.234501 1.140187
2005-03-07 14:53:29 51°36.727 3°25.739 3.2923 2.812933 30.224635 1.140187
2005-03-07 14:54:29 51°36.699 3°25.689 3.2778 2.811986 30.215927 1.376153
2005-03-07 14:55:29 51°36.668 3°25.642 3.2719 2.809671 30.201048 1.51099
2005-03-07 14:56:29 51°36.636 3°25.595 3.2553 2.807146 30.187011 1.342443
2005-03-07 14:57:28 51°36.607 3°25.539 3.2484 2.805988 30.185001 1.308734
2005-03-07 14:58:29 51°36.58 3°25.479 3.2432 2.803463 30.160075 1.342443
2005-03-07 14:59:29 51°36.555 3°25.417 3.2425 2.802411 30.150942 1.342443
2005-03-07 15:00:29 51°36.532 3°25.35 3.2521 2.80199 30.146787 1.409862
2005-03-07 15:01:28 51°36.507 3°25.292 3.2362 2.801885 30.148047 1.5447
2005-03-07 15:02:28 51°36.478 3°25.237 3.2354 2.801464 30.146399 1.578409
2005-03-07 15:03:29 51°36.446 3°25.189 3.2428 2.802411 30.154286 1.679537
2005-03-07 15:04:30 51°36.413 3°25.139 3.2426 2.801779 30.145963 1.679537
2005-03-07 15:05:29 51°36.382 3°25.09 3.2698 2.801674 30.140536 1.645828
2005-03-07 15:06:28 51°36.353 3°25.036 3.2379 2.8022 30.153463 1.612118
2005-03-07 15:07:29 51°36.325 3°24.979 3.241 2.801885 30.143867 1.578409
2005-03-07 15:08:29 51°36.298 3°24.918 3.2451 2.800517 30.135168 1.578409
2005-03-07 15:09:29 51°36.272 3°24.858 3.2431 2.801148 30.142655 1.612118
2005-03-07 15:10:29 51°36.248 3°24.794 3.2318 2.801569 30.147647 1.645828
2005-03-07 15:11:30 51°36.226 3°24.726 3.2339 2.799991 30.133106 1.746956
2005-03-07 15:12:29 51°36.208 3°24.657 3.2554 2.800201 30.138946 1.679537
2005-03-07 15:13:29 51°36.198 3°24.576 3.2284 2.799991 30.13645 1.814375
2005-03-07 15:14:29 51°36.189 3°24.491 3.2244 2.799254 30.13022 1.780665
2005-03-07 15:15:30 51°36.183 3°24.402 3.23 2.79978 30.132282 1.746956
2005-03-07 15:16:29 51°36.181 3°24.341 3.2195 2.799149 30.133152 1.881794
2005-03-07 15:17:30 51°36.179 3°24.297 3.2186 2.798833 30.131079 2.016631
2005-03-07 15:18:28 51°36.177 3°24.267 3.2241 2.798728 30.125651 1.814375
2005-03-07 15:19:30 51°36.174 3°24.245 3.2243 2.799465 30.134389 1.848084
2005-03-07 15:20:30 51°36.17 3°24.227 3.2221 2.800412 30.145624 1.814375
2005-03-07 15:21:30 51°36.167 3°24.21 3.2282 2.798412 30.124413 1.814375
2005-03-07 15:22:28 51°36.163 3°24.195 3.2197 2.799044 30.126052 1.848084
2005-03-07 15:23:28 51°36.159 3°24.176 3.2323 2.798623 30.125238 1.881794
2005-03-07 15:24:29 51°36.155 3°24.156 3.2252 2.799465 30.131881 1.881794
2005-03-07 15:25:29 51°36.142 3°24.118 3.2326 2.798412 30.12107 1.881794
2005-03-07 15:26:28 51°36.123 3°24.058 3.2293 2.799254 30.123535 1.848084
2005-03-07 15:27:30 51°36.097 3°23.998 3.2241 2.799359 30.128961 1.848084
2005-03-07 15:28:29 51°36.07 3°23.949 3.2154 2.798938 30.120626 1.814375
2005-03-07 15:29:28 51°36.044 3°23.904 3.2501 2.797991 30.104385 1.949212
2005-03-07 15:30:29 51°36.014 3°23.865 3.2556 2.798412 30.099359 1.915503
2005-03-07 15:31:30 51°35.986 3°23.833 3.246 2.799464 30.109329 1.949212
2005-03-07 15:32:29 51°35.957 3°23.805 3.2452 2.799991 30.1164 1.881794
2005-03-07 15:33:30 51°35.926 3°23.783 3.247 2.799885 30.113483 1.915503
2005-03-07 15:34:28 51°35.897 3°23.767 3.2531 2.800622 30.122214 1.915503
2005-03-07 15:35:28 51°35.868 3°23.757 3.2577 2.800622 30.11804 2.016631
2005-03-07 15:36:29 51°35.835 3°23.738 3.2589 2.79999 30.103883 1.848084
2005-03-07 15:37:28 51°35.781 3°23.667 3.251 2.801358 30.120927 1.915503
2005-03-07 15:38:30 51°35.633 3°23.473 3.2526 2.800411 30.112208 2.117759
2005-03-07 15:39:29 51°35.458 3°23.251 3.2854 2.800096 30.110136 2.151469
2005-03-07 15:40:28 51°35.33 3°22.959 3.2445 2.803042 30.129192 2.185178
2005-03-07 15:41:30 51°35.323 3°22.572 3.2545 2.800306 30.118473 2.218888
2005-03-07 15:42:29 51°35.35 3°22.202 3.2553 2.801253 30.117177 2.151469
2005-03-07 15:43:29 51°35.339 3°21.819 3.2488 2.799465 30.12436 2.286306
2005-03-07 15:44:29 51°35.323 3°21.438 3.2394 2.800727 30.135992 2.320016
2005-03-07 15:45:28 51°35.302 3°21.063 3.2668 2.800938 30.132638 2.387435
2005-03-07 15:46:29 51°35.276 3°20.673 3.2792 2.802516 30.141326 2.589691
2005-03-07 15:47:30 51°35.248 3°20.287 3.328 2.810092 30.192658 2.65711
2005-03-07 15:48:29 51°35.19 3°19.923 3.396 2.82093 30.271621 2.421144
2005-03-07 15:49:30 51°35.096 3°19.569 3.4371 2.829033 30.327275 2.151469
2005-03-07 15:50:29 51°35.003 3°19.223 3.5739 2.843238 30.418866 2.117759
2005-03-07 15:51:28 51°34.892 3°18.891 3.6446 2.870915 30.624269 2.421144
2005-03-07 15:52:30 51°34.778 3°18.543 3.6534 2.882702 30.725117 2.454853
2005-03-07 15:53:29 51°34.668 3°18.21 3.6711 2.887753 30.771053 2.320016
2005-03-07 15:54:30 51°34.559 3°17.864 3.783 2.892068 30.802409 2.117759
2005-03-07 15:55:30 51°34.449 3°17.528 3.7854 2.913643 30.973966 2.185178
2005-03-07 15:56:30 51°34.34 3°17.192 3.7452 2.914064 30.983974 2.218888
2005-03-07 15:57:28 51°34.236 3°16.871 3.7311 2.907644 30.928884 2.08405
2005-03-07 15:58:28 51°34.13 3°16.53 3.6835 2.900909 30.883531 1.982922
2005-03-07 15:59:30 51°34.02 3°16.186 3.66 2.893436 30.822702 1.915503
2005-03-07 16:00:29 51°33.912 3°15.853 3.6657 2.887964 30.772686 1.848084
2005-03-07 16:01:30 51°33.793 3°15.522 3.7324 2.895752 30.841487 1.848084
2005-03-07 16:02:29 51°33.672 3°15.195 3.8018 2.908591 30.926502 1.814375
2005-03-07 16:03:29 51°33.546 3°14.871 3.8532 2.918168 30.991587 1.848084
2005-03-07 16:04:28 51°33.419 3°14.556 3.8517 2.922062 31.00769 1.915503
2005-03-07 16:05:29 51°33.286 3°14.231 3.8771 2.926167 31.04311 1.949212
2005-03-07 16:06:30 51°33.158 3°13.905 3.8827 2.928272 31.050033 2.117759
2005-03-07 16:07:30 51°33.027 3°13.584 3.9011 2.929009 31.048533 2.08405
2005-03-07 16:08:28 51°32.901 3°13.276 3.9024 2.930377 31.050206 2.151469
2005-03-07 16:09:30 51°32.767 3°12.941 3.9141 2.931114 31.057981 2.151469
2005-03-07 16:10:28 51°32.638 3°12.63 3.922 2.934587 31.072461 2.185178
2005-03-07 16:11:29 51°32.507 3°12.3 3.8964 2.934271 31.078044 2.08405
2005-03-07 16:12:29 51°32.375 3°11.982 3.8788 2.932376 31.066851 2.016631
2005-03-07 16:13:29 51°32.242 3°11.656 3.8652 2.929009 31.047689 1.949212
2005-03-07 16:14:29 51°32.112 3°11.334 3.8743 2.927114 31.045762 1.881794
2005-03-07 16:15:28 51°31.983 3°11.021 3.845 2.924904 31.018198 1.881794
2005-03-07 16:16:29 51°31.848 3°10.701 3.8394 2.920799 30.992054 1.848084
2005-03-07 16:17:29 51°31.717 3°10.375 3.805 2.919116 30.995096 1.780665
2005-03-07 16:18:28 51°31.575 3°10.071 3.8111 2.9168 30.966273 1.713247
2005-03-07 16:19:30 51°31.427 3°9.752 3.806 2.916169 30.958874 1.645828
2005-03-07 16:20:28 51°31.283 3°9.456 3.8055 2.912695 30.927439 1.679537
2005-03-07 16:21:28 51°31.138 3°9.146 3.7978 2.912485 30.932553 1.612118
2005-03-07 16:22:30 51°30.989 3°8.83 3.794 2.910906 30.912364 1.612118
2005-03-07 16:23:29 51°30.847 3°8.524 3.797 2.910696 30.912423 1.612118
2005-03-07 16:24:28 51°30.705 3°8.216 3.7989 2.909959 30.912207 1.578409
2005-03-07 16:25:29 51°30.559 3°7.909 3.7791 2.90817 30.879453 1.578409
2005-03-07 16:26:29 51°30.414 3°7.602 3.8001 2.905118 30.86218 1.5447
2005-03-07 16:27:29 51°30.269 3°7.291 3.7977 2.903434 30.851687 1.5447
2005-03-07 16:28:30 51°30.128 3°6.976 3.7345 2.901224 30.835017 1.612118
2005-03-07 16:29:28 51°29.986 3°6.677 3.7331 2.896698 30.807146 1.5447
2005-03-07 16:30:28 51°29.842 3°6.365 3.7128 2.893857 30.800701 1.5447
2005-03-07 16:31:30 51°29.691 3°6.049 3.6938 2.891437 30.784047 1.612118
2005-03-07 16:32:29 51°29.547 3°5.741 3.695 2.889227 30.777431 1.612118
2005-03-07 16:33:30 51°29.4 3°5.43 3.6729 2.889753 30.778566 1.645828
2005-03-07 16:34:29 51°29.256 3°5.123 3.6555 2.885333 30.745961 1.679537
2005-03-07 16:35:30 51°29.111 3°4.807 3.5948 2.879439 30.708609 1.645828
2005-03-07 16:36:28 51°28.972 3°4.497 3.5762 2.874178 30.680319 1.578409
2005-03-07 16:37:29 51°28.823 3°4.182 3.5537 2.869863 30.637075 1.612118
2005-03-07 16:38:30 51°28.677 3°3.865 3.5422 2.86639 30.623902 1.578409
2005-03-07 16:39:28 51°28.534 3°3.558 3.5328 2.865548 30.61314 1.578409
2005-03-07 16:40:30 51°28.384 3°3.233 3.5462 2.864601 30.626364 1.578409
2005-03-07 16:41:29 51°28.238 3°2.917 3.569 2.866916 30.634309 1.5447
2005-03-07 16:42:30 51°28.088 3°2.598 3.5271 2.864917 30.632612 1.5447
2005-03-07 16:43:29 51°27.945 3°2.278 3.539 2.866706 30.652029 1.578409
2005-03-07 16:44:29 51°27.822 3°1.939 3.5536 2.867864 30.65389 1.578409
2005-03-07 16:45:29 51°27.7 3°1.586 3.5657 2.869337 30.669578 1.578409
2005-03-07 16:46:29 51°27.577 3°1.24 3.5886 2.873967 30.695518 1.578409
2005-03-07 16:47:28 51°27.454 3°0.898 3.6486 2.882071 30.764848 1.645828
2005-03-07 16:48:29 51°27.325 3°0.544 3.694 2.890384 30.806203 1.578409
2005-03-07 16:49:30 51°27.197 3°0.194 3.7156 2.896804 30.846268 1.612118
2005-03-07 16:50:28 51°27.075 2°59.859 3.7511 2.902487 30.87846 1.612118
2005-03-07 16:51:29 51°26.944 2°59.516 3.775 2.906802 30.910565 1.612118
2005-03-07 16:52:29 51°26.79 2°59.21 3.8279 2.91017 30.923943 1.612118
2005-03-07 16:53:30 51°26.614 2°58.918 3.8262 2.915327 30.945638 1.679537
2005-03-07 16:54:30 51°26.442 2°58.627 3.7986 2.914064 30.93842 1.612118
2005-03-07 16:55:29 51°26.246 2°58.389 3.7953 2.91259 30.940529 1.780665
2005-03-07 16:56:30 51°26.037 2°58.17 3.7342 2.909433 30.912776 1.949212
2005-03-07 16:57:29 51°25.831 2°57.952 3.614 2.891647 30.784837 1.713247
2005-03-07 16:58:30 51°25.62 2°57.732 3.5369 2.868179 30.628169 1.612118
2005-03-07 16:59:29 51°25.411 2°57.531 3.4834 2.85755 30.554982 1.5447
2005-03-07 17:00:30 51°25.199 2°57.322 3.4646 2.852604 30.503365 1.477281
2005-03-07 17:01:29 51°24.984 2°57.139 3.3753 2.842713 30.447013 1.443571
2005-03-07 17:02:28 51°24.768 2°56.955 3.3454 2.825981 30.332221 1.275024
2005-03-07 17:03:30 51°24.545 2°56.76 3.3067 2.821456 30.299613 1.241315
2005-03-07 17:04:30 51°24.328 2°56.569 3.2649 2.810092 30.194329 1.207606
2005-03-07 17:05:30 51°24.11 2°56.382 3.2464 2.801358 30.120092 1.207606
2005-03-07 17:06:29 51°23.892 2°56.188 3.2603 2.797676 30.08896 1.207606
2005-03-07 17:07:30 51°23.67 2°55.994 3.2445 2.795571 30.077357 1.275024
2005-03-07 17:08:28 51°23.457 2°55.816 3.2665 2.794308 30.051552 1.51099
2005-03-07 17:09:30 51°23.226 2°55.641 3.2459 2.794519 30.060713 1.578409
2005-03-07 17:10:28 51°22.998 2°55.492 3.2568 2.796518 30.066073 1.477281
2005-03-07 17:11:30 51°22.758 2°55.34 3.2469 2.795466 30.061937 1.51099
2005-03-07 17:12:30 51°22.526 2°55.202 3.2447 2.795676 30.076103 1.376153
2005-03-07 17:13:30 51°22.292 2°55.068 3.2418 2.797676 30.096469 1.51099
2005-03-07 17:14:30 51°22.06 2°54.941 3.2371 2.797255 30.09899 1.376153
2005-03-07 17:15:29 51°21.826 2°54.805 3.268 2.795256 30.081123 1.376153
2005-03-07 17:16:30 51°21.589 2°54.667 3.3307 2.796939 30.051907 1.409862
2005-03-07 17:17:30 51°21.362 2°54.531 3.272 2.787573 29.892206 1.376153
2005-03-07 17:18:30 51°21.135 2°54.37 3.2617 2.767266 29.717271 1.51099
2005-03-07 17:19:30 51°20.908 2°54.21 3.1953 2.754851 29.618859 1.612118
2005-03-07 17:20:28 51°20.688 2°54.06 3.1719 2.747696 29.558761 1.746956
2005-03-07 17:21:30 51°20.453 2°53.891 3.1645 2.741068 29.497449 1.746956
2005-03-07 17:22:29 51°20.224 2°53.732 3.1826 2.735491 29.425651 1.679537
2005-03-07 17:23:30 51°19.993 2°53.563 3.1707 2.733913 29.411862 1.746956
2005-03-07 17:24:29 51°19.767 2°53.406 3.1995 2.735807 29.431025 2.320016
2005-03-07 17:25:30 51°19.536 2°53.25 3.1665 2.740331 29.471519 2.926785
2005-03-07 17:26:30 51°19.306 2°53.098 3.1682 2.738858 29.471267 2.960494
2005-03-07 17:27:29 51°19.079 2°52.949 3.1714 2.740437 29.485051 3.297589
2005-03-07 17:28:30 51°18.847 2°52.791 3.1818 2.741699 29.489357 3.23017
2005-03-07 17:29:28 51°18.628 2°52.645 3.176 2.742751 29.506738 3.499845
2005-03-07 17:30:30 51°18.395 2°52.481 3.151 2.740542 29.487937 4.174033
2005-03-07 17:31:28 51°18.161 2°52.404 3.1539 2.736544 29.461858 3.870648
2005-03-07 17:32:28 51°17.921 2°52.355 3.173 2.735702 29.446965 3.735811
2005-03-07 17:33:28 51°17.678 2°52.295 3.152 2.737175 29.462786 4.072905
2005-03-07 17:34:29 51°17.433 2°52.234 3.1468 2.736754 29.447153 3.702101
2005-03-07 17:35:30 51°17.184 2°52.188 3.1202 2.733598 29.427754 3.836939
2005-03-07 17:36:30 51°16.948 2°52.25 3.0975 2.725812 29.365705 3.971777
2005-03-07 17:37:30 51°16.719 2°52.356 3.0617 2.715292 29.275183 3.938067
2005-03-07 17:38:28 51°16.505 2°52.499 3.0309 2.706244 29.184092 4.34258
2005-03-07 17:39:30 51°16.275 2°52.633 3.0092 2.692989 29.065715 4.207742
2005-03-07 17:40:29 51°16.053 2°52.746 3.0055 2.687834 29.015029 3.76952
2005-03-07 17:41:29 51°15.831 2°52.857 3.03 2.68836 29.01317 3.23017
2005-03-07 17:42:30 51°15.608 2°52.979 3.089 2.698143 29.095258 2.690819
2005-03-07 17:43:30 51°15.396 2°53.119 3.0642 2.707086 29.172925 2.421144
2005-03-07 17:44:28 51°15.195 2°53.283 2.9993 2.689727 28.99782 2.151469
2005-03-07 17:45:28 51°15.014 2°53.493 2.9756 2.670371 28.843134 2.320016
2005-03-07 17:46:29 51°14.853 2°53.721 2.9715 2.671738 28.839213 3.061623
2005-03-07 17:47:30 51°14.735 2°53.987 2.9437 2.668372 28.809709 3.836939
2005-03-07 17:48:30 51°14.625 2°54.265 2.9059 2.663849 28.781746 4.174033
2005-03-07 17:49:30 51°14.525 2°54.547 2.9078 2.65922 28.75572 3.735811
2005-03-07 17:50:30 51°14.437 2°54.834 2.9682 2.659325 28.744887 2.926785
2005-03-07 17:51:30 51°14.342 2°55.118 3.2267 2.610411 28.056347 2.421144
2005-03-07 17:52:30 51°14.22 2°55.339 3.1269 2.460545 26.160429 3.095332
2005-03-07 17:53:28 51°14.083 2°55.455 3.1009 2.267429 24.008477 4.241452
2005-03-07 17:54:30 51°13.938 2°55.553 3.2047 2.162447 22.781997 4.578546
2005-03-07 17:55:29 51°13.817 2°55.645 3.1286 2.00508 20.91195 5.4887
2005-03-07 17:56:30 51°13.736 2°55.752 3.2986 1.894084 19.665017 6.297725
2005-03-07 17:57:30 51°13.667 2°55.899 3.5285 1.693398 17.377095 -0.848668
2005-03-07 17:58:29 51°13.62 2°56.027 3.6645 1.69686 17.415241 -0.848668
2005-03-07 17:59:29 51°13.599 2°56.093 3.8164 1.694762 17.386525 -0.882377
2005-03-07 18:00:29 51°13.594 2°56.1 3.9768 1.694447 17.380124 -0.882377
2005-03-07 18:01:29 51°13.592 2°56.11 4.1044 1.694027 17.372555 -0.848668
2005-03-07 18:02:29 51°13.592 2°56.11 4.1377 1.693608 17.363064 -0.848668
2005-03-07 18:03:28 51°13.594 2°56.102 4.3705 1.693083 17.353852 -0.848668